createdAt,value
2018-10-21T00:00:34.517Z,81.40
2018-10-21T00:03:04.559Z,81.40
2018-10-21T00:05:34.291Z,81.00
2018-10-21T00:08:04.583Z,81.40
2018-10-21T00:10:34.380Z,81.70
2018-10-21T00:13:03.514Z,81.60
2018-10-21T00:15:33.335Z,81.50
2018-10-21T00:18:02.744Z,81.50
2018-10-21T00:20:32.529Z,81.60
2018-10-21T00:23:02.173Z,81.70
2018-10-21T00:25:31.946Z,81.80
2018-10-21T00:28:01.247Z,82.00
2018-10-21T00:33:09.983Z,82.10
2018-10-21T00:35:40.951Z,82.20
2018-10-21T00:38:11.818Z,82.00
2018-10-21T00:40:44.034Z,81.90
2018-10-21T00:43:15.256Z,81.90
2018-10-21T00:45:45.767Z,82.00
2018-10-21T00:48:14.785Z,82.40
2018-10-21T00:50:46.357Z,82.10
2018-10-21T00:53:15.579Z,82.30
2018-10-21T00:55:45.414Z,82.10
2018-10-21T00:58:15.813Z,82.20
2018-10-21T01:00:46.185Z,82.30
2018-10-21T01:03:16.313Z,82.30
2018-10-21T01:05:46.412Z,82.50
2018-10-21T01:08:17.385Z,82.30
2018-10-21T01:10:48.491Z,82.30
2018-10-21T01:13:18.061Z,82.30
2018-10-21T01:15:47.329Z,82.30
2018-10-21T01:18:17.211Z,82.30
2018-10-21T01:20:47.380Z,82.30
2018-10-21T01:23:19.179Z,82.30
2018-10-21T01:25:50.032Z,82.20
2018-10-21T01:28:19.218Z,82.20
2018-10-21T01:30:48.485Z,82.30
2018-10-21T01:33:17.948Z,82.50
2018-10-21T01:35:49.067Z,82.60
2018-10-21T01:38:19.907Z,82.60
2018-10-21T01:40:53.048Z,82.50
2018-10-21T01:43:31.021Z,82.40
2018-10-21T01:46:01.626Z,82.40
2018-10-21T01:48:34.104Z,82.40
2018-10-21T01:51:04.215Z,82.20
2018-10-21T01:53:34.440Z,82.40
2018-10-21T01:56:03.889Z,82.60
2018-10-21T01:58:33.651Z,82.70
2018-10-21T02:01:03.855Z,82.70
2018-10-21T02:03:33.401Z,82.80
2018-10-21T02:06:04.755Z,82.90
2018-10-21T02:08:33.926Z,83.00
2018-10-21T02:11:03.113Z,82.90
2018-10-21T02:13:33.036Z,83.00
2018-10-21T02:16:02.211Z,84.10
2018-10-21T02:18:32.171Z,83.50
2018-10-21T02:21:01.949Z,83.20
2018-10-21T02:23:31.523Z,83.20
2018-10-21T02:26:01.482Z,83.10
2018-10-21T02:28:32.015Z,83.10
2018-10-21T02:31:02.107Z,83.10
2018-10-21T02:33:31.955Z,83.20
2018-10-21T02:36:02.043Z,83.30
2018-10-21T02:38:31.139Z,83.30
2018-10-21T02:41:32.459Z,83.10
2018-10-21T02:44:01.952Z,83.20
2018-10-21T02:46:32.821Z,83.20
2018-10-21T02:49:03.933Z,84.10
2018-10-21T02:51:36.665Z,83.40
2018-10-21T02:54:08.679Z,83.60
2018-10-21T02:56:39.133Z,83.50
2018-10-21T02:59:10.478Z,83.30
2018-10-21T03:01:42.319Z,83.30
2018-10-21T03:04:12.225Z,83.30
2018-10-21T03:06:43.177Z,83.10
2018-10-21T03:09:13.184Z,83.10
2018-10-21T03:11:43.736Z,83.00
2018-10-21T03:14:14.519Z,83.00
2018-10-21T03:16:46.368Z,82.80
2018-10-21T03:19:16.985Z,82.80
2018-10-21T03:21:47.810Z,82.80
2018-10-21T03:24:17.083Z,83.60
2018-10-21T03:26:48.252Z,82.80
2018-10-21T03:29:19.777Z,82.80
2018-10-21T03:31:49.916Z,82.80
2018-10-21T03:34:21.497Z,82.80
2018-10-21T03:36:51.093Z,82.80
2018-10-21T03:39:20.877Z,82.90
2018-10-21T03:41:49.976Z,83.00
2018-10-21T03:44:19.970Z,83.20
2018-10-21T03:46:50.351Z,83.40
2018-10-21T03:49:19.977Z,83.80
2018-10-21T03:51:51.080Z,84.10
2018-10-21T03:54:21.829Z,84.30
2018-10-21T03:56:52.477Z,85.30
2018-10-21T03:59:21.626Z,84.50
2018-10-21T04:01:53.920Z,84.40
2018-10-21T04:04:24.452Z,84.50
2018-10-21T04:06:57.189Z,84.30
2018-10-21T04:09:28.036Z,84.20
2018-10-21T04:11:57.096Z,84.20
2018-10-21T04:14:26.997Z,84.10
2018-10-21T04:16:56.763Z,84.20
2018-10-21T04:19:27.378Z,84.00
2018-10-21T04:21:58.092Z,83.90
2018-10-21T04:24:28.435Z,83.70
2018-10-21T04:26:57.813Z,83.50
2018-10-21T04:29:28.485Z,83.40
2018-10-21T04:31:58.184Z,83.40
2018-10-21T04:34:27.310Z,83.20
2018-10-21T04:37:10.252Z,83.10
2018-10-21T04:39:57.292Z,83.00
2018-10-21T04:42:27.124Z,83.00
2018-10-21T04:44:57.876Z,82.80
2018-10-21T04:47:29.118Z,83.00
2018-10-21T04:49:58.609Z,83.30
2018-10-21T04:52:29.747Z,83.30
2018-10-21T04:55:05.520Z,83.30
2018-10-21T04:57:37.081Z,83.40
2018-10-21T05:00:15.733Z,83.50
2018-10-21T05:02:46.836Z,83.50
2018-10-21T05:05:18.230Z,83.60
2018-10-21T05:07:49.779Z,83.60
2018-10-21T05:10:32.990Z,83.50
2018-10-21T05:13:03.915Z,83.50
2018-10-21T05:15:35.632Z,83.40
2018-10-21T05:18:05.211Z,83.70
2018-10-21T05:20:35.016Z,83.40
2018-10-21T05:23:05.005Z,83.40
2018-10-21T05:25:34.866Z,83.30
2018-10-21T05:28:05.275Z,83.30
2018-10-21T05:30:35.535Z,83.40
2018-10-21T05:33:06.134Z,83.40
2018-10-21T05:35:35.959Z,83.30
2018-10-21T05:38:06.462Z,83.30
2018-10-21T05:40:36.141Z,83.30
2018-10-21T05:43:08.754Z,83.40
2018-10-21T05:45:39.027Z,83.50
2018-10-21T05:48:08.208Z,83.50
2018-10-21T05:50:40.058Z,83.50
2018-10-21T05:53:10.773Z,83.60
2018-10-21T05:55:44.072Z,83.60
2018-10-21T05:58:14.999Z,83.70
2018-10-21T06:00:45.313Z,83.70
2018-10-21T06:03:15.930Z,83.90
2018-10-21T06:05:47.888Z,83.80
2018-10-21T06:08:18.623Z,83.70
2018-10-21T06:10:49.736Z,83.70
2018-10-21T06:13:20.125Z,83.60
2018-10-21T06:15:50.031Z,83.60
2018-10-21T06:18:25.282Z,83.70
2018-10-21T06:20:57.953Z,83.90
2018-10-21T06:23:27.641Z,84.10
2018-10-21T06:25:58.197Z,84.50
2018-10-21T06:28:34.674Z,84.70
2018-10-21T06:31:04.703Z,84.80
2018-10-21T06:33:34.191Z,84.80
2018-10-21T06:36:04.478Z,84.80
2018-10-21T06:38:34.733Z,84.80
2018-10-21T06:41:04.727Z,84.70
2018-10-21T06:43:34.595Z,84.50
2018-10-21T06:46:05.780Z,84.20
2018-10-21T06:48:36.128Z,84.00
2018-10-21T06:51:06.987Z,83.70
2018-10-21T06:53:38.335Z,83.40
2018-10-21T06:56:09.312Z,83.10
2018-10-21T06:58:39.634Z,82.80
2018-10-21T07:01:10.868Z,82.20
2018-10-21T07:03:41.310Z,81.50
2018-10-21T07:06:17.995Z,80.70
2018-10-21T07:08:48.033Z,79.60
2018-10-21T07:11:17.097Z,78.90
2018-10-21T07:13:46.585Z,78.10
2018-10-21T07:16:16.349Z,77.60
2018-10-21T07:18:48.143Z,76.80
2018-10-21T07:21:18.854Z,75.90
2018-10-21T07:23:48.291Z,75.50
2018-10-21T07:26:18.564Z,74.50
2018-10-21T07:28:49.273Z,74.20
2018-10-21T07:31:19.885Z,73.10
2018-10-21T07:33:50.663Z,72.60
2018-10-21T07:36:19.872Z,72.00
2018-10-21T07:38:50.099Z,71.30
2018-10-21T07:41:20.487Z,70.50
2018-10-21T07:43:50.775Z,69.80
2018-10-21T07:46:21.803Z,68.50
2018-10-21T07:48:53.729Z,67.50
2018-10-21T07:51:24.817Z,67.40
2018-10-21T07:53:57.340Z,66.30
2018-10-21T07:56:26.549Z,66.20
2018-10-21T07:58:56.848Z,66.00
2018-10-21T08:01:26.958Z,64.80
2018-10-21T08:03:57.097Z,63.50
2018-10-21T08:06:44.223Z,63.20
2018-10-21T08:09:14.106Z,63.10
2018-10-21T08:11:44.147Z,62.00
2018-10-21T08:14:13.270Z,62.10
2018-10-21T08:16:43.234Z,62.60
2018-10-21T08:19:13.693Z,62.10
2018-10-21T08:21:44.299Z,61.10
2018-10-21T08:24:13.414Z,60.50
2018-10-21T08:26:43.324Z,59.90
2018-10-21T08:29:13.136Z,59.20
2018-10-21T08:31:43.033Z,58.70
2018-10-21T08:34:12.761Z,58.70
2018-10-21T08:36:43.062Z,58.00
2018-10-21T08:39:14.489Z,58.50
2018-10-21T08:41:45.672Z,58.60
2018-10-21T08:44:15.977Z,58.80
2018-10-21T08:46:45.765Z,59.20
2018-10-21T08:49:15.668Z,59.30
2018-10-21T08:51:45.471Z,59.20
2018-10-21T08:54:15.064Z,59.90
2018-10-21T08:56:44.156Z,59.90
2018-10-21T08:59:14.031Z,59.90
2018-10-21T09:01:43.655Z,59.80
2018-10-21T09:04:12.746Z,60.40
2018-10-21T09:06:43.179Z,61.20
2018-10-21T09:09:13.759Z,61.50
2018-10-21T09:16:42.109Z,61.50
2018-10-21T09:19:14.108Z,62.50
2018-10-21T09:21:43.798Z,62.30
2018-10-21T09:24:13.908Z,61.80
2018-10-21T09:26:43.682Z,61.80
2018-10-21T09:29:13.313Z,61.90
2018-10-21T09:31:43.103Z,61.40
2018-10-21T09:34:12.797Z,61.00
2018-10-21T09:36:41.797Z,61.10
2018-10-21T09:39:13.812Z,60.80
2018-10-21T09:41:44.348Z,60.80
2018-10-21T09:44:14.149Z,60.90
2018-10-21T09:46:43.790Z,60.50
2018-10-21T09:49:13.665Z,59.30
2018-10-21T09:51:43.745Z,59.80
2018-10-21T09:54:13.565Z,59.40
2018-10-21T09:56:44.144Z,59.50
2018-10-21T09:59:14.044Z,59.50
2018-10-21T10:01:48.830Z,58.80
2018-10-21T10:04:18.153Z,58.40
2018-10-21T10:06:47.846Z,58.30
2018-10-21T10:09:17.535Z,58.90
2018-10-21T10:11:47.260Z,58.10
2018-10-21T10:14:17.163Z,57.70
2018-10-21T10:16:46.844Z,57.90
2018-10-21T10:19:16.143Z,57.50
2018-10-21T10:21:46.098Z,57.70
2018-10-21T10:24:15.977Z,57.70
2018-10-21T10:26:45.210Z,56.90
2018-10-21T10:29:16.245Z,57.10
2018-10-21T10:31:45.827Z,57.00
2018-10-21T10:34:15.434Z,56.50
2018-10-21T10:36:44.909Z,56.40
2018-10-21T10:39:15.325Z,56.30
2018-10-21T10:41:45.117Z,56.30
2018-10-21T10:44:16.052Z,55.80
2018-10-21T10:46:45.447Z,56.30
2018-10-21T10:49:15.260Z,56.20
2018-10-21T10:51:44.953Z,55.90
2018-10-21T10:54:14.141Z,56.30
2018-10-21T10:56:43.803Z,55.40
2018-10-21T10:59:14.007Z,55.70
2018-10-21T11:01:46.660Z,55.80
2018-10-21T11:04:16.610Z,55.20
2018-10-21T11:06:47.289Z,55.10
2018-10-21T11:09:17.635Z,55.70
2018-10-21T11:11:47.346Z,55.50
2018-10-21T11:14:18.366Z,54.80
2018-10-21T11:16:47.889Z,55.70
2018-10-21T11:19:17.155Z,55.60
2018-10-21T11:21:46.984Z,55.30
2018-10-21T11:24:16.153Z,55.90
2018-10-21T11:26:49.465Z,55.60
2018-10-21T11:29:19.637Z,55.10
2018-10-21T11:31:50.316Z,55.20
2018-10-21T11:34:19.522Z,54.70
2018-10-21T11:36:50.487Z,55.20
2018-10-21T11:39:20.392Z,55.60
2018-10-21T11:41:49.584Z,55.40
2018-10-21T11:44:20.655Z,55.60
2018-10-21T11:46:50.290Z,55.50
2018-10-21T11:49:21.209Z,55.50
2018-10-21T11:51:51.891Z,55.80
2018-10-21T11:54:21.378Z,56.20
2018-10-21T11:56:50.532Z,56.30
2018-10-21T11:59:20.414Z,56.10
2018-10-21T12:01:50.054Z,56.30
2018-10-21T12:04:19.452Z,56.40
2018-10-21T12:06:48.913Z,56.90
2018-10-21T12:09:18.904Z,57.00
2018-10-21T12:11:48.556Z,57.10
2018-10-21T12:19:17.487Z,56.80
2018-10-21T12:21:47.384Z,57.50
2018-10-21T12:24:17.624Z,57.20
2018-10-21T12:26:48.400Z,57.40
2018-10-21T12:29:19.148Z,58.10
2018-10-21T12:31:51.296Z,57.70
2018-10-21T12:34:23.385Z,57.80
2018-10-21T12:36:55.658Z,57.50
2018-10-21T12:39:25.787Z,57.80
2018-10-21T12:41:57.467Z,57.60
2018-10-21T12:44:27.229Z,57.40
2018-10-21T12:46:57.139Z,57.50
2018-10-21T12:49:29.386Z,57.70
2018-10-21T12:52:01.278Z,57.30
2018-10-21T12:54:31.509Z,58.10
2018-10-21T12:57:01.241Z,57.30
2018-10-21T12:59:30.996Z,57.30
2018-10-21T13:02:00.053Z,57.30
2018-10-21T13:04:31.090Z,56.90
2018-10-21T13:07:03.252Z,57.40
2018-10-21T13:09:33.134Z,56.80
2018-10-21T13:12:04.998Z,57.90
2018-10-21T13:14:39.373Z,57.00
2018-10-21T13:17:08.376Z,57.10
2018-10-21T13:19:40.181Z,57.20
2018-10-21T13:22:10.181Z,57.00
2018-10-21T13:24:40.104Z,56.70
2018-10-21T13:27:09.798Z,56.30
2018-10-21T13:29:41.479Z,56.70
2018-10-21T13:32:10.590Z,56.70
2018-10-21T13:34:41.666Z,56.70
2018-10-21T13:37:17.212Z,57.00
2018-10-21T13:39:47.150Z,56.70
2018-10-21T13:42:17.404Z,56.70
2018-10-21T13:44:47.241Z,56.50
2018-10-21T13:47:16.790Z,56.20
2018-10-21T13:49:48.359Z,56.60
2018-10-21T13:52:18.150Z,56.50
2018-10-21T13:54:48.425Z,56.50
2018-10-21T13:57:18.160Z,56.40
2018-10-21T13:59:47.981Z,56.10
2018-10-21T14:02:17.435Z,56.30
2018-10-21T14:04:47.250Z,56.90
2018-10-21T14:07:16.355Z,56.40
2018-10-21T14:09:46.734Z,56.60
2018-10-21T14:12:16.019Z,56.30
2018-10-21T14:14:46.258Z,56.20
2018-10-21T14:17:16.439Z,56.50
2018-10-21T14:19:46.626Z,56.30
2018-10-21T14:22:16.830Z,56.00
2018-10-21T14:24:46.076Z,56.30
2018-10-21T14:27:17.868Z,56.20
2018-10-21T14:29:47.643Z,56.30
2018-10-21T14:32:18.127Z,55.80
2018-10-21T14:34:49.055Z,56.00
2018-10-21T14:37:19.560Z,55.90
2018-10-21T14:39:50.205Z,56.00
2018-10-21T14:42:20.329Z,55.50
2018-10-21T14:44:49.638Z,56.10
2018-10-21T14:47:19.538Z,55.50
2018-10-21T14:49:50.186Z,56.10
2018-10-21T14:52:19.462Z,56.10
2018-10-21T14:54:49.799Z,56.00
2018-10-21T14:57:20.218Z,55.90
2018-10-21T14:59:50.509Z,56.20
2018-10-21T15:02:23.006Z,56.00
2018-10-21T15:04:53.513Z,56.00
2018-10-21T15:07:23.570Z,56.20
2018-10-21T15:09:54.070Z,56.10
2018-10-21T15:12:23.752Z,56.20
2018-10-21T15:14:53.081Z,56.20
2018-10-21T15:17:22.533Z,56.40
2018-10-21T15:19:52.362Z,56.60
2018-10-21T15:22:22.333Z,56.40
2018-10-21T15:24:52.107Z,56.30
2018-10-21T15:27:21.265Z,56.60
2018-10-21T15:29:50.542Z,56.50
2018-10-21T15:32:20.844Z,56.50
2018-10-21T15:34:52.569Z,56.70
2018-10-21T15:37:22.408Z,57.00
2018-10-21T15:39:52.608Z,57.80
2018-10-21T15:42:22.166Z,56.70
2018-10-21T15:44:53.766Z,56.80
2018-10-21T15:47:23.283Z,57.00
2018-10-21T15:49:52.944Z,58.10
2018-10-21T15:52:25.268Z,57.30
2018-10-21T15:54:54.280Z,57.20
2018-10-21T15:57:24.252Z,57.40
2018-10-21T15:59:56.080Z,57.50
2018-10-21T16:02:26.717Z,57.60
2018-10-21T16:04:56.049Z,57.60
2018-10-21T16:07:27.358Z,57.70
2018-10-21T16:09:57.618Z,57.90
2018-10-21T16:12:27.652Z,58.10
2018-10-21T16:14:58.868Z,58.20
2018-10-21T16:17:28.719Z,58.20
2018-10-21T16:20:00.998Z,58.50
2018-10-21T16:22:30.965Z,58.60
2018-10-21T16:25:00.894Z,58.60
2018-10-21T16:27:30.463Z,58.80
2018-10-21T16:30:00.373Z,58.90
2018-10-21T16:32:36.360Z,59.10
2018-10-21T16:35:09.989Z,59.20
2018-10-21T16:37:40.728Z,59.30
2018-10-21T16:40:13.933Z,59.50
2018-10-21T16:42:43.021Z,59.60
2018-10-21T16:45:15.255Z,59.70
2018-10-21T16:47:45.232Z,59.80
2018-10-21T16:50:16.925Z,60.00
2018-10-21T16:52:49.376Z,60.00
2018-10-21T16:55:21.710Z,60.10
2018-10-21T16:57:54.350Z,60.30
2018-10-21T17:00:24.323Z,60.50
2018-10-21T17:02:54.055Z,60.60
2018-10-21T17:05:38.209Z,60.90
2018-10-21T17:08:08.030Z,61.00
2018-10-21T17:10:37.811Z,61.30
2018-10-21T17:13:09.616Z,61.50
2018-10-21T17:15:40.212Z,61.60
2018-10-21T17:18:10.301Z,61.70
2018-10-21T17:20:40.531Z,61.90
2018-10-21T17:23:14.420Z,62.10
2018-10-21T17:25:43.717Z,62.10
2018-10-21T17:28:15.237Z,62.20
2018-10-21T17:30:44.700Z,62.70
2018-10-21T17:33:14.727Z,62.70
2018-10-21T17:35:52.459Z,62.90
2018-10-21T17:38:24.538Z,63.00
2018-10-21T17:40:54.381Z,63.10
2018-10-21T17:43:28.708Z,63.40
2018-10-21T17:45:58.378Z,63.50
2018-10-21T17:48:28.857Z,64.10
2018-10-21T17:51:00.649Z,64.30
2018-10-21T17:53:31.285Z,64.50
2018-10-21T17:56:06.562Z,64.70
2018-10-21T17:58:36.581Z,64.80
2018-10-21T18:01:06.891Z,65.20
2018-10-21T18:03:38.540Z,65.50
2018-10-21T18:06:09.618Z,65.80
2018-10-21T18:08:39.272Z,66.10
2018-10-21T18:11:09.553Z,66.90
2018-10-21T18:13:39.506Z,66.70
2018-10-21T18:16:09.032Z,66.80
2018-10-21T18:18:38.131Z,67.50
2018-10-21T18:21:08.102Z,67.90
2018-10-21T18:23:38.087Z,68.20
2018-10-21T18:26:13.168Z,68.60
2018-10-21T18:28:47.752Z,68.60
2018-10-21T18:31:17.854Z,68.80
2018-10-21T18:33:47.564Z,69.00
2018-10-21T18:36:18.243Z,69.20
2018-10-21T18:38:49.183Z,69.50
2018-10-21T18:41:19.718Z,69.50
2018-10-21T18:43:52.587Z,69.80
2018-10-21T18:46:24.529Z,70.00
2018-10-21T18:48:54.498Z,70.00
2018-10-21T18:51:24.362Z,70.10
2018-10-21T18:53:58.080Z,70.30
2018-10-21T18:56:28.120Z,70.40
2018-10-21T18:58:58.447Z,70.50
2018-10-21T19:01:29.960Z,70.70
2018-10-21T19:04:00.143Z,70.70
2018-10-21T19:06:29.963Z,70.70
2018-10-21T19:08:59.618Z,70.90
2018-10-21T19:11:28.821Z,71.20
2018-10-21T19:14:00.582Z,71.30
2018-10-21T19:16:29.850Z,71.40
2018-10-21T19:19:03.095Z,71.60
2018-10-21T19:21:33.055Z,71.80
2018-10-21T19:24:05.041Z,71.80
2018-10-21T19:26:37.265Z,72.00
2018-10-21T19:29:24.360Z,72.00
2018-10-21T19:31:53.824Z,71.90
2018-10-21T19:34:30.729Z,71.70
2018-10-21T19:37:00.630Z,72.20
2018-10-21T19:39:34.064Z,71.80
2018-10-21T19:42:03.873Z,72.00
2018-10-21T19:44:34.941Z,71.80
2018-10-21T19:47:05.524Z,71.90
2018-10-21T19:49:34.617Z,72.10
2018-10-21T19:52:04.307Z,72.30
2018-10-21T19:54:35.903Z,72.40
2018-10-21T19:57:08.346Z,72.40
2018-10-21T19:59:37.781Z,72.60
2018-10-21T20:02:06.869Z,72.60
2018-10-21T20:04:36.347Z,73.00
2018-10-21T20:07:07.150Z,73.00
2018-10-21T20:09:36.740Z,73.10
2018-10-21T20:12:06.762Z,73.10
2018-10-21T20:14:36.417Z,73.30
2018-10-21T20:17:05.935Z,73.20
2018-10-21T20:19:35.947Z,73.40
2018-10-21T20:22:08.741Z,74.00
2018-10-21T20:24:38.250Z,74.20
2018-10-21T20:27:08.353Z,74.60
2018-10-21T20:29:42.094Z,74.70
2018-10-21T20:32:13.663Z,74.80
2018-10-21T20:34:43.352Z,74.70
2018-10-21T20:37:14.967Z,74.50
2018-10-21T20:39:45.593Z,74.70
2018-10-21T20:42:15.295Z,74.60
2018-10-21T20:44:45.454Z,74.60
2018-10-21T20:47:19.195Z,74.60
2018-10-21T20:52:50.776Z,74.60
2018-10-21T20:55:19.901Z,74.40
2018-10-21T20:57:49.007Z,74.60
2018-10-21T21:00:18.230Z,74.70
2018-10-21T21:02:47.607Z,74.80
2018-10-21T21:05:16.683Z,74.90
2018-10-21T21:07:46.711Z,75.20
2018-10-21T21:10:16.152Z,75.40
2018-10-21T21:12:45.423Z,75.60
2018-10-21T21:15:14.681Z,75.60
2018-10-21T21:17:44.001Z,75.80
2018-10-21T21:20:13.335Z,75.80
2018-10-21T21:22:42.477Z,75.90
2018-10-21T21:25:11.708Z,75.90
2018-10-21T21:27:40.821Z,76.00
2018-10-21T21:30:09.961Z,75.90
2018-10-21T21:32:39.319Z,76.00
2018-10-21T21:35:08.768Z,75.90
2018-10-21T21:37:38.827Z,75.90
2018-10-21T21:40:09.905Z,76.30
2018-10-21T21:42:39.768Z,76.50
2018-10-21T21:45:09.897Z,76.30
2018-10-21T21:47:40.152Z,76.30
2018-10-21T21:50:10.553Z,76.50
2018-10-21T21:52:40.786Z,76.30
2018-10-21T21:55:11.131Z,76.30
2018-10-21T21:57:40.295Z,76.60
2018-10-21T22:00:12.907Z,76.60
2018-10-21T22:02:42.994Z,76.90
2018-10-21T22:05:12.035Z,76.90
2018-10-21T22:07:41.402Z,76.80
2018-10-21T22:10:12.433Z,76.80
2018-10-21T22:12:42.636Z,76.80
2018-10-21T22:15:11.908Z,76.80
2018-10-21T22:17:41.965Z,76.80
2018-10-21T22:20:12.002Z,76.70
2018-10-21T22:22:41.712Z,76.80
2018-10-21T22:25:11.064Z,76.90
2018-10-21T22:27:40.243Z,76.80
2018-10-21T22:30:11.105Z,76.80
2018-10-21T22:32:40.301Z,76.90
2018-10-21T22:35:09.950Z,77.00
2018-10-21T22:37:39.105Z,77.10
2018-10-21T22:40:08.240Z,77.20
2018-10-21T22:42:37.498Z,77.20
2018-10-21T22:45:08.737Z,77.50
2018-10-21T22:47:37.885Z,77.50
2018-10-21T22:50:09.622Z,77.60
2018-10-21T22:52:38.708Z,77.70
2018-10-21T22:55:08.805Z,78.00
2018-10-21T22:57:37.897Z,77.80
2018-10-21T23:00:08.915Z,77.80
2018-10-21T23:02:38.088Z,77.80
2018-10-21T23:05:08.654Z,77.90
2018-10-21T23:07:38.812Z,77.80
2018-10-21T23:10:08.142Z,77.80
2018-10-21T23:12:37.124Z,77.80
2018-10-21T23:15:07.060Z,77.80
2018-10-21T23:17:36.212Z,77.70
2018-10-21T23:20:06.288Z,77.80
2018-10-21T23:22:35.600Z,78.50
2018-10-21T23:25:05.210Z,77.90
2018-10-21T23:27:34.293Z,77.80
2018-10-21T23:30:03.658Z,78.00
2018-10-21T23:32:33.862Z,78.10
2018-10-21T23:35:02.987Z,78.60
2018-10-21T23:37:32.303Z,78.70
2018-10-21T23:40:01.460Z,78.90
2018-10-21T23:42:30.462Z,78.80
2018-10-21T23:44:59.537Z,78.90
2018-10-21T23:47:28.646Z,78.90
2018-10-21T23:49:57.912Z,79.00
2018-10-21T23:52:26.964Z,78.80
2018-10-21T23:54:56.058Z,79.00
2018-10-21T23:57:25.132Z,79.00
2018-10-21T23:59:54.315Z,78.80
